sensor_id;sensor_type;location;lat;lon;timestamp;pressure;altitude;pressure_sealevel;temperature;humidity
13705;BME280;6924;52.122;9.952;2023-05-19T00:00:26;101673.19;;;8.42;81.29
13705;BME280;6924;52.122;9.952;2023-05-19T00:02:53;101679.91;;;8.36;81.53
13705;BME280;6924;52.122;9.952;2023-05-19T00:05:20;101676.53;;;8.39;82.12
13705;BME280;6924;52.122;9.952;2023-05-19T00:07:50;101676.53;;;8.34;81.64
13705;BME280;6924;52.122;9.952;2023-05-19T00:10:17;101677.63;;;8.33;81.38
13705;BME280;6924;52.122;9.952;2023-05-19T00:12:45;101675.66;;;8.33;82.35
13705;BME280;6924;52.122;9.952;2023-05-19T00:15:13;101672.81;;;8.28;82.74
13705;BME280;6924;52.122;9.952;2023-05-19T00:17:39;101676.78;;;8.32;82.94
13705;BME280;6924;52.122;9.952;2023-05-19T00:20:07;101677.09;;;8.36;83.41
13705;BME280;6924;52.122;9.952;2023-05-19T00:22:33;101677.69;;;8.38;83.61
13705;BME280;6924;52.122;9.952;2023-05-19T00:25:01;101674.34;;;8.41;83.54
13705;BME280;6924;52.122;9.952;2023-05-19T00:27:28;101674.34;;;8.41;83.01
13705;BME280;6924;52.122;9.952;2023-05-19T00:29:55;101674.56;;;8.39;83.71
13705;BME280;6924;52.122;9.952;2023-05-19T00:32:22;101673.19;;;8.42;83.18
13705;BME280;6924;52.122;9.952;2023-05-19T00:34:48;101670.13;;;8.43;84.18
13705;BME280;6924;52.122;9.952;2023-05-19T00:37:15;101665.31;;;8.44;83.60
13705;BME280;6924;52.122;9.952;2023-05-19T00:39:41;101661.66;;;8.43;83.79
13705;BME280;6924;52.122;9.952;2023-05-19T00:42:08;101662.22;;;8.40;83.35
13705;BME280;6924;52.122;9.952;2023-05-19T00:44:36;101661.03;;;8.36;83.75
13705;BME280;6924;52.122;9.952;2023-05-19T00:47:06;101655.03;;;8.22;83.71
13705;BME280;6924;52.122;9.952;2023-05-19T00:49:34;101658.97;;;8.21;84.11
13705;BME280;6924;52.122;9.952;2023-05-19T00:52:01;101662.09;;;8.25;84.85
13705;BME280;6924;52.122;9.952;2023-05-19T00:54:27;101660.69;;;8.22;84.88
13705;BME280;6924;52.122;9.952;2023-05-19T00:56:54;101653.91;;;8.23;85.51
13705;BME280;6924;52.122;9.952;2023-05-19T00:59:22;101664.91;;;8.25;86.40
13705;BME280;6924;52.122;9.952;2023-05-19T01:01:48;101651.66;;;8.25;85.76
13705;BME280;6924;52.122;9.952;2023-05-19T01:04:18;101645.75;;;8.27;86.17
13705;BME280;6924;52.122;9.952;2023-05-19T01:06:46;101644.88;;;8.26;86.17
13705;BME280;6924;52.122;9.952;2023-05-19T01:09:12;101652.81;;;8.30;85.95
13705;BME280;6924;52.122;9.952;2023-05-19T01:11:38;101646.03;;;8.31;86.22
13705;BME280;6924;52.122;9.952;2023-05-19T01:14:05;101651.09;;;8.28;85.81
13705;BME280;6924;52.122;9.952;2023-05-19T01:16:35;101646.03;;;8.31;86.07
13705;BME280;6924;52.122;9.952;2023-05-19T01:19:19;101640.41;;;8.31;85.85
13705;BME280;6924;52.122;9.952;2023-05-19T01:22:17;101642.13;;;8.32;85.80
13705;BME280;6924;52.122;9.952;2023-05-19T01:25:29;101637.00;;;8.28;85.97
13705;BME280;6924;52.122;9.952;2023-05-19T01:28:19;101641.38;;;8.04;86.19
13705;BME280;6924;52.122;9.952;2023-05-19T01:30:52;101640.50;;;7.98;86.22
13705;BME280;6924;52.122;9.952;2023-05-19T01:33:20;101636.28;;;8.01;86.28
13705;BME280;6924;52.122;9.952;2023-05-19T01:35:48;101642.53;;;8.08;87.73
13705;BME280;6924;52.122;9.952;2023-05-19T01:38:16;101645.34;;;8.08;87.09
13705;BME280;6924;52.122;9.952;2023-05-19T01:40:44;101647.56;;;8.01;87.19
13705;BME280;6924;52.122;9.952;2023-05-19T01:43:16;101642.44;;;7.93;86.96
13705;BME280;6924;52.122;9.952;2023-05-19T01:45:44;101646.66;;;7.95;86.89
13705;BME280;6924;52.122;9.952;2023-05-19T01:48:11;101641.59;;;7.97;87.07
13705;BME280;6924;52.122;9.952;2023-05-19T01:50:39;101638.28;;;8.00;87.82
13705;BME280;6924;52.122;9.952;2023-05-19T01:53:06;101639.94;;;8.01;86.91
13705;BME280;6924;52.122;9.952;2023-05-19T01:55:33;101643.34;;;8.03;87.78
13705;BME280;6924;52.122;9.952;2023-05-19T01:58:11;101640.28;;;8.05;87.16
13705;BME280;6924;52.122;9.952;2023-05-19T02:00:50;101644.78;;;8.06;87.32
13705;BME280;6924;52.122;9.952;2023-05-19T02:03:28;101645.63;;;8.06;86.27
13705;BME280;6924;52.122;9.952;2023-05-19T02:06:02;101648.44;;;8.06;86.69
13705;BME280;6924;52.122;9.952;2023-05-19T02:08:41;101646.16;;;8.03;86.72
13705;BME280;6924;52.122;9.952;2023-05-19T02:11:13;101652.91;;;8.02;85.75
13705;BME280;6924;52.122;9.952;2023-05-19T02:13:42;101651.47;;;7.95;86.79
13705;BME280;6924;52.122;9.952;2023-05-19T02:16:12;101644.41;;;7.92;86.71
13705;BME280;6924;52.122;9.952;2023-05-19T02:18:39;101647.44;;;7.85;86.77
13705;BME280;6924;52.122;9.952;2023-05-19T02:21:09;101647.72;;;7.84;86.86
13705;BME280;6924;52.122;9.952;2023-05-19T02:23:38;101648.56;;;7.84;87.32
13705;BME280;6924;52.122;9.952;2023-05-19T02:26:05;101646.31;;;7.86;86.88
13705;BME280;6924;52.122;9.952;2023-05-19T02:28:32;101647.19;;;7.87;87.27
13705;BME280;6924;52.122;9.952;2023-05-19T02:30:59;101643.50;;;7.86;86.71
13705;BME280;6924;52.122;9.952;2023-05-19T02:33:25;101647.44;;;7.85;86.79
13705;BME280;6924;52.122;9.952;2023-05-19T02:35:55;101646.88;;;7.83;86.91
13705;BME280;6924;52.122;9.952;2023-05-19T02:38:22;101646.88;;;7.83;86.77
13705;BME280;6924;52.122;9.952;2023-05-19T02:40:50;101648.53;;;7.79;86.45
13705;BME280;6924;52.122;9.952;2023-05-19T02:43:16;101637.53;;;7.78;86.28
13705;BME280;6924;52.122;9.952;2023-05-19T02:45:42;101639.22;;;7.79;86.91
13705;BME280;6924;52.122;9.952;2023-05-19T02:48:09;101632.19;;;7.76;86.63
13705;BME280;6924;52.122;9.952;2023-05-19T02:50:35;101637.81;;;7.76;86.58
13705;BME280;6924;52.122;9.952;2023-05-19T02:53:03;101621.19;;;7.75;87.27
13705;BME280;6924;52.122;9.952;2023-05-19T02:55:30;101633.28;;;7.75;87.64
13705;BME280;6924;52.122;9.952;2023-05-19T02:57:56;101628.78;;;7.74;87.06
13705;BME280;6924;52.122;9.952;2023-05-19T03:00:23;101632.44;;;7.75;87.46
13705;BME280;6924;52.122;9.952;2023-05-19T03:02:49;101625.91;;;7.69;87.77
13705;BME280;6924;52.122;9.952;2023-05-19T03:05:17;101623.66;;;7.71;88.17
13705;BME280;6924;52.122;9.952;2023-05-19T03:07:44;101626.50;;;7.71;88.36
13705;BME280;6924;52.122;9.952;2023-05-19T03:10:12;101626.50;;;7.71;87.61
13705;BME280;6924;52.122;9.952;2023-05-19T03:12:38;101626.50;;;7.71;88.23
13705;BME280;6924;52.122;9.952;2023-05-19T03:15:05;101623.66;;;7.71;87.59
13705;BME280;6924;52.122;9.952;2023-05-19T03:17:32;101627.06;;;7.73;87.68
13705;BME280;6924;52.122;9.952;2023-05-19T03:20:00;101618.03;;;7.71;87.85
13705;BME280;6924;52.122;9.952;2023-05-19T03:22:26;101624.25;;;7.73;87.84
13705;BME280;6924;52.122;9.952;2023-05-19T03:24:53;101620.81;;;7.66;87.41
13705;BME280;6924;52.122;9.952;2023-05-19T03:27:21;101619.16;;;7.65;87.65
13705;BME280;6924;52.122;9.952;2023-05-19T03:29:47;101616.25;;;7.60;87.90
13705;BME280;6924;52.122;9.952;2023-05-19T03:32:14;101620.78;;;7.61;88.22
13705;BME280;6924;52.122;9.952;2023-05-19T03:34:40;101625.03;;;7.63;89.35
13705;BME280;6924;52.122;9.952;2023-05-19T03:37:06;101627.59;;;7.65;89.95
13705;BME280;6924;52.122;9.952;2023-05-19T03:39:34;101621.66;;;7.66;89.79
13705;BME280;6924;52.122;9.952;2023-05-19T03:42:01;101630.97;;;7.67;89.17
13705;BME280;6924;52.122;9.952;2023-05-19T03:44:29;101625.06;;;7.69;89.38
13705;BME280;6924;52.122;9.952;2023-05-19T03:46:55;101624.81;;;7.70;89.49
13705;BME280;6924;52.122;9.952;2023-05-19T03:49:21;101625.66;;;7.71;89.98
13705;BME280;6924;52.122;9.952;2023-05-19T03:51:48;101624.81;;;7.70;89.99
13705;BME280;6924;52.122;9.952;2023-05-19T03:54:14;101627.06;;;7.73;89.72
13705;BME280;6924;52.122;9.952;2023-05-19T03:56:41;101630.19;;;7.72;90.51
13705;BME280;6924;52.122;9.952;2023-05-19T03:59:08;101624.25;;;7.73;90.08
13705;BME280;6924;52.122;9.952;2023-05-19T04:01:38;101623.16;;;7.74;89.92
13705;BME280;6924;52.122;9.952;2023-05-19T04:04:04;101628.50;;;7.76;89.49
13705;BME280;6924;52.122;9.952;2023-05-19T04:06:31;101629.06;;;7.78;90.00
13705;BME280;6924;52.122;9.952;2023-05-19T04:08:58;101626.00;;;7.79;90.70
13705;BME280;6924;52.122;9.952;2023-05-19T04:11:24;101624.59;;;7.82;90.88
13705;BME280;6924;52.122;9.952;2023-05-19T04:13:50;101628.84;;;7.84;90.79
13705;BME280;6924;52.122;9.952;2023-05-19T04:16:17;101621.25;;;7.85;90.94
13705;BME280;6924;52.122;9.952;2023-05-19T04:18:44;101626.59;;;7.86;91.54
13705;BME280;6924;52.122;9.952;2023-05-19T04:21:11;101629.72;;;7.90;91.38
13705;BME280;6924;52.122;9.952;2023-05-19T04:23:37;101624.41;;;7.94;90.96
13705;BME280;6924;52.122;9.952;2023-05-19T04:26:04;101634.00;;;7.98;91.13
13705;BME280;6924;52.122;9.952;2023-05-19T04:28:30;101625.28;;;7.99;91.44
13705;BME280;6924;52.122;9.952;2023-05-19T04:30:59;101624.19;;;8.00;92.12
13705;BME280;6924;52.122;9.952;2023-05-19T04:33:27;101632.34;;;8.02;92.53
13705;BME280;6924;52.122;9.952;2023-05-19T04:35:55;101631.22;;;8.03;92.07
13705;BME280;6924;52.122;9.952;2023-05-19T04:38:22;101634.91;;;8.08;92.67
13705;BME280;6924;52.122;9.952;2023-05-19T04:40:48;101638.31;;;8.11;92.73
13705;BME280;6924;52.122;9.952;2023-05-19T04:43:16;101636.66;;;8.15;93.39
13705;BME280;6924;52.122;9.952;2023-05-19T04:45:43;101638.66;;;8.19;94.05
13705;BME280;6924;52.122;9.952;2023-05-19T04:48:10;101640.94;;;8.22;94.42
13705;BME280;6924;52.122;9.952;2023-05-19T04:50:38;101643.78;;;8.27;94.47
13705;BME280;6924;52.122;9.952;2023-05-19T04:53:07;101647.75;;;8.32;94.42
13705;BME280;6924;52.122;9.952;2023-05-19T04:55:33;101640.72;;;8.34;94.83
13705;BME280;6924;52.122;9.952;2023-05-19T04:58:02;101646.13;;;8.41;94.39
13705;BME280;6924;52.122;9.952;2023-05-19T05:00:29;101646.97;;;8.41;94.47
13705;BME280;6924;52.122;9.952;2023-05-19T05:02:55;101651.53;;;8.47;94.03
13705;BME280;6924;52.122;9.952;2023-05-19T05:05:22;101644.78;;;8.54;94.37
13705;BME280;6924;52.122;9.952;2023-05-19T05:07:49;101641.16;;;8.58;94.45
13705;BME280;6924;52.122;9.952;2023-05-19T05:10:19;101639.47;;;8.62;94.45
13705;BME280;6924;52.122;9.952;2023-05-19T05:12:46;101634.69;;;8.68;93.87
13705;BME280;6924;52.122;9.952;2023-05-19T05:15:13;101638.66;;;8.72;93.54
13705;BME280;6924;52.122;9.952;2023-05-19T05:17:40;101633.59;;;8.74;92.44
13705;BME280;6924;52.122;9.952;2023-05-19T05:20:09;101631.66;;;8.80;92.00
13705;BME280;6924;52.122;9.952;2023-05-19T05:22:36;101632.75;;;8.79;91.52
13705;BME280;6924;52.122;9.952;2023-05-19T05:25:04;101632.19;;;8.77;89.28
13705;BME280;6924;52.122;9.952;2023-05-19T05:27:32;101629.66;;;8.85;89.29
13705;BME280;6924;52.122;9.952;2023-05-19T05:29:58;101624.88;;;8.81;88.05
13705;BME280;6924;52.122;9.952;2023-05-19T05:32:25;101622.31;;;8.74;88.27
13705;BME280;6924;52.122;9.952;2023-05-19T05:34:51;101625.44;;;8.83;88.09
13705;BME280;6924;52.122;9.952;2023-05-19T05:37:18;101629.97;;;8.94;88.96
13705;BME280;6924;52.122;9.952;2023-05-19T05:39:44;101628.31;;;9.03;88.11
13705;BME280;6924;52.122;9.952;2023-05-19T05:42:10;101626.09;;;9.10;88.99
13705;BME280;6924;52.122;9.952;2023-05-19T05:44:38;101629.47;;;9.18;87.78
13705;BME280;6924;52.122;9.952;2023-05-19T05:47:05;101617.34;;;9.17;88.02
13705;BME280;6924;52.122;9.952;2023-05-19T05:49:33;101618.78;;;9.35;86.61
13705;BME280;6924;52.122;9.952;2023-05-19T05:52:02;101623.56;;;9.50;86.37
13705;BME280;6924;52.122;9.952;2023-05-19T05:54:29;101624.72;;;9.59;85.96
13705;BME280;6924;52.122;9.952;2023-05-19T05:56:56;101626.97;;;9.72;85.72
13705;BME280;6924;52.122;9.952;2023-05-19T05:59:23;101629.22;;;9.86;84.59
13705;BME280;6924;52.122;9.952;2023-05-19T06:01:50;101620.72;;;9.91;86.65
13705;BME280;6924;52.122;9.952;2023-05-19T06:04:17;101632.59;;;10.03;85.00
13705;BME280;6924;52.122;9.952;2023-05-19T06:06:45;101630.03;;;10.12;83.44
13705;BME280;6924;52.122;9.952;2023-05-19T06:09:11;101632.00;;;10.17;84.59
13705;BME280;6924;52.122;9.952;2023-05-19T06:11:37;101631.09;;;10.26;82.74
13705;BME280;6924;52.122;9.952;2023-05-19T06:14:04;101627.16;;;10.27;83.51
13705;BME280;6924;52.122;9.952;2023-05-19T06:16:30;101629.13;;;10.47;81.98
13705;BME280;6924;52.122;9.952;2023-05-19T06:18:58;101639.00;;;10.50;81.31
13705;BME280;6924;52.122;9.952;2023-05-19T06:21:24;101635.06;;;10.41;82.15
13705;BME280;6924;52.122;9.952;2023-05-19T06:23:51;101640.13;;;10.49;81.89
13705;BME280;6924;52.122;9.952;2023-05-19T06:26:17;101633.28;;;10.65;81.66
13705;BME280;6924;52.122;9.952;2023-05-19T06:28:44;101640.63;;;10.66;81.34
13705;BME280;6924;52.122;9.952;2023-05-19T06:31:10;101630.91;;;10.88;81.18
13705;BME280;6924;52.122;9.952;2023-05-19T06:33:36;101629.19;;;10.92;81.77
13705;BME280;6924;52.122;9.952;2023-05-19T06:36:04;101626.88;;;10.99;80.39
13705;BME280;6924;52.122;9.952;2023-05-19T06:38:32;101635.59;;;11.08;81.13
13705;BME280;6924;52.122;9.952;2023-05-19T06:40:59;101635.31;;;11.04;81.01
13705;BME280;6924;52.122;9.952;2023-05-19T06:43:25;101630.16;;;11.16;80.85
13705;BME280;6924;52.122;9.952;2023-05-19T06:45:51;101629.88;;;11.18;79.91
13705;BME280;6924;52.122;9.952;2023-05-19T06:48:18;101626.63;;;11.40;79.58
13705;BME280;6924;52.122;9.952;2023-05-19T06:50:44;101625.34;;;11.56;77.51
13705;BME280;6924;52.122;9.952;2023-05-19T06:53:12;101634.59;;;11.67;77.54
13705;BME280;6924;52.122;9.952;2023-05-19T06:55:38;101636.94;;;11.60;78.80
13705;BME280;6924;52.122;9.952;2023-05-19T06:58:05;101627.84;;;11.63;78.75
13705;BME280;6924;52.122;9.952;2023-05-19T07:00:31;101622.28;;;11.82;78.39
13705;BME280;6924;52.122;9.952;2023-05-19T07:02:58;101623.63;;;11.95;77.42
13705;BME280;6924;52.122;9.952;2023-05-19T07:05:24;101622.38;;;12.06;75.96
13705;BME280;6924;52.122;9.952;2023-05-19T07:07:50;101622.88;;;12.13;76.93
13705;BME280;6924;52.122;9.952;2023-05-19T07:10:18;101621.13;;;12.17;77.92
13705;BME280;6924;52.122;9.952;2023-05-19T07:12:45;101618.66;;;12.11;77.07
13705;BME280;6924;52.122;9.952;2023-05-19T07:15:12;101620.50;;;12.20;77.62
13705;BME280;6924;52.122;9.952;2023-05-19T07:17:38;101624.34;;;12.35;78.10
13705;BME280;6924;52.122;9.952;2023-05-19T07:20:06;101622.44;;;12.49;77.54
13705;BME280;6924;52.122;9.952;2023-05-19T07:22:34;101615.28;;;12.57;77.57
13705;BME280;6924;52.122;9.952;2023-05-19T07:25:00;101615.09;;;12.72;76.48
13705;BME280;6924;52.122;9.952;2023-05-19T07:27:28;101612.41;;;12.81;76.45
13705;BME280;6924;52.122;9.952;2023-05-19T07:29:54;101621.16;;;12.85;75.51
13705;BME280;6924;52.122;9.952;2023-05-19T07:32:21;101616.69;;;12.78;75.60
13705;BME280;6924;52.122;9.952;2023-05-19T07:34:47;101611.53;;;12.80;75.62
13705;BME280;6924;52.122;9.952;2023-05-19T07:37:13;101609.78;;;12.85;76.52
13705;BME280;6924;52.122;9.952;2023-05-19T07:39:40;101592.91;;;12.93;76.55
13705;BME280;6924;52.122;9.952;2023-05-19T07:42:07;101604.91;;;13.09;76.12
13705;BME280;6924;52.122;9.952;2023-05-19T07:44:35;101602.84;;;13.15;74.46
13705;BME280;6924;52.122;9.952;2023-05-19T07:47:01;101601.28;;;13.22;74.71
13705;BME280;6924;52.122;9.952;2023-05-19T07:49:27;101597.50;;;13.27;74.55
13705;BME280;6924;52.122;9.952;2023-05-19T07:51:54;101599.91;;;13.20;75.27
13705;BME280;6924;52.122;9.952;2023-05-19T07:54:20;101594.09;;;13.30;73.91
13705;BME280;6924;52.122;9.952;2023-05-19T07:56:47;101593.22;;;13.49;75.15
13705;BME280;6924;52.122;9.952;2023-05-19T07:59:13;101599.44;;;13.51;74.67
13705;BME280;6924;52.122;9.952;2023-05-19T08:01:41;101597.63;;;13.41;74.55
13705;BME280;6924;52.122;9.952;2023-05-19T08:04:08;101587.69;;;13.57;73.81
13705;BME280;6924;52.122;9.952;2023-05-19T08:06:35;101586.28;;;13.74;73.53
13705;BME280;6924;52.122;9.952;2023-05-19T08:09:01;101585.75;;;13.72;72.90
13705;BME280;6924;52.122;9.952;2023-05-19T08:11:29;101585.75;;;13.72;73.18
13705;BME280;6924;52.122;9.952;2023-05-19T08:13:55;101589.03;;;13.79;72.17
13705;BME280;6924;52.122;9.952;2023-05-19T08:16:22;101586.63;;;14.00;71.45
13705;BME280;6924;52.122;9.952;2023-05-19T08:18:49;101594.97;;;13.96;72.34
13705;BME280;6924;52.122;9.952;2023-05-19T08:21:16;101589.06;;;14.06;73.01
13705;BME280;6924;52.122;9.952;2023-05-19T08:23:42;101581.41;;;14.21;70.35
13705;BME280;6924;52.122;9.952;2023-05-19T08:26:09;101578.97;;;14.28;68.06
13705;BME280;6924;52.122;9.952;2023-05-19T08:28:35;101579.63;;;14.39;68.43
13705;BME280;6924;52.122;9.952;2023-05-19T08:31:01;101584.81;;;14.64;68.93
13705;BME280;6924;52.122;9.952;2023-05-19T08:33:28;101576.38;;;14.73;66.49
13705;BME280;6924;52.122;9.952;2023-05-19T08:35:56;101576.56;;;14.77;65.29
13705;BME280;6924;52.122;9.952;2023-05-19T08:38:22;101574.66;;;14.72;66.25
13705;BME280;6924;52.122;9.952;2023-05-19T08:40:49;101568.53;;;14.79;64.86
13705;BME280;6924;52.122;9.952;2023-05-19T08:43:15;101569.06;;;14.81;65.99
13705;BME280;6924;52.122;9.952;2023-05-19T08:45:43;101572.66;;;14.73;64.97
13705;BME280;6924;52.122;9.952;2023-05-19T08:48:12;101572.47;;;14.69;65.72
13705;BME280;6924;52.122;9.952;2023-05-19T08:50:39;101567.59;;;14.70;66.51
13705;BME280;6924;52.122;9.952;2023-05-19T08:53:11;101557.56;;;14.86;67.08
13705;BME280;6924;52.122;9.952;2023-05-19T08:55:41;101556.44;;;15.09;65.83
13705;BME280;6924;52.122;9.952;2023-05-19T08:58:10;101554.25;;;15.06;64.25
13705;BME280;6924;52.122;9.952;2023-05-19T09:00:38;101551.06;;;15.08;62.85
13705;BME280;6924;52.122;9.952;2023-05-19T09:03:06;101550.03;;;15.26;64.95
13705;BME280;6924;52.122;9.952;2023-05-19T09:05:32;101542.59;;;15.39;64.77
13705;BME280;6924;52.122;9.952;2023-05-19T09:07:59;101537.53;;;15.59;63.34
13705;BME280;6924;52.122;9.952;2023-05-19T09:10:28;101538.44;;;15.68;64.50
13705;BME280;6924;52.122;9.952;2023-05-19T09:12:54;101542.91;;;15.83;59.80
13705;BME280;6924;52.122;9.952;2023-05-19T09:15:25;101535.25;;;15.92;57.24
13705;BME280;6924;52.122;9.952;2023-05-19T09:18:04;101528.94;;;16.04;51.70
13705;BME280;6924;52.122;9.952;2023-05-19T09:20:31;101535.19;;;16.15;51.70
13705;BME280;6924;52.122;9.952;2023-05-19T09:22:58;101528.63;;;16.14;53.34
13705;BME280;6924;52.122;9.952;2023-05-19T09:25:25;101535.38;;;16.27;53.87
13705;BME280;6924;52.122;9.952;2023-05-19T09:27:54;101516.09;;;16.32;52.30
13705;BME280;6924;52.122;9.952;2023-05-19T09:30:22;101528.22;;;16.38;57.10
13705;BME280;6924;52.122;9.952;2023-05-19T09:32:50;101528.38;;;16.42;55.46
13705;BME280;6924;52.122;9.952;2023-05-19T09:35:17;101526.41;;;16.51;53.63
13705;BME280;6924;52.122;9.952;2023-05-19T09:37:44;101533.16;;;16.64;52.06
13705;BME280;6924;52.122;9.952;2023-05-19T09:40:13;101522.28;;;16.83;52.30
13705;BME280;6924;52.122;9.952;2023-05-19T09:42:40;101522.13;;;16.97;53.33
13705;BME280;6924;52.122;9.952;2023-05-19T09:45:09;101523.66;;;17.12;51.63
13705;BME280;6924;52.122;9.952;2023-05-19T09:47:36;101528.34;;;16.99;50.54
13705;BME280;6924;52.122;9.952;2023-05-19T09:50:07;101514.06;;;16.99;51.89
13705;BME280;6924;52.122;9.952;2023-05-19T09:52:35;101517.44;;;17.01;51.42
13705;BME280;6924;52.122;9.952;2023-05-19T09:55:03;101511.06;;;16.96;51.24
13705;BME280;6924;52.122;9.952;2023-05-19T09:57:34;101520.13;;;16.80;49.76
13705;BME280;6924;52.122;9.952;2023-05-19T10:00:03;101509.81;;;16.70;50.22
13705;BME280;6924;52.122;9.952;2023-05-19T10:02:42;101513.03;;;16.86;50.61
13705;BME280;6924;52.122;9.952;2023-05-19T10:05:10;101509.03;;;16.96;48.08
13705;BME280;6924;52.122;9.952;2023-05-19T10:07:39;101508.72;;;16.98;46.77
13705;BME280;6924;52.122;9.952;2023-05-19T10:10:08;101503.47;;;16.82;46.33
13705;BME280;6924;52.122;9.952;2023-05-19T10:12:37;101502.75;;;16.77;46.50
13705;BME280;6924;52.122;9.952;2023-05-19T10:15:05;101504.78;;;16.76;47.63
13705;BME280;6924;52.122;9.952;2023-05-19T10:17:33;101501.28;;;16.97;47.23
13705;BME280;6924;52.122;9.952;2023-05-19T10:20:02;101493.56;;;17.14;47.09
13705;BME280;6924;52.122;9.952;2023-05-19T10:22:31;101490.00;;;17.35;46.37
13705;BME280;6924;52.122;9.952;2023-05-19T10:24:57;101489.13;;;17.43;46.01
13705;BME280;6924;52.122;9.952;2023-05-19T10:27:24;101474.69;;;17.48;45.92
13705;BME280;6924;52.122;9.952;2023-05-19T10:29:53;101467.03;;;17.70;45.31
13705;BME280;6924;52.122;9.952;2023-05-19T10:32:27;101477.81;;;17.82;45.01
13705;BME280;6924;52.122;9.952;2023-05-19T10:35:10;101479.97;;;17.76;45.44
13705;BME280;6924;52.122;9.952;2023-05-19T10:37:44;101474.50;;;17.53;45.08
13705;BME280;6924;52.122;9.952;2023-05-19T10:40:16;101470.16;;;17.21;46.56
13705;BME280;6924;52.122;9.952;2023-05-19T10:42:52;101472.03;;;17.00;48.83
13705;BME280;6924;52.122;9.952;2023-05-19T10:45:26;101479.25;;;17.06;47.04
13705;BME280;6924;52.122;9.952;2023-05-19T10:47:53;101478.25;;;16.93;46.46
13705;BME280;6924;52.122;9.952;2023-05-19T10:50:21;101481.22;;;16.70;47.71
13705;BME280;6924;52.122;9.952;2023-05-19T10:52:51;101474.50;;;16.66;47.56
13705;BME280;6924;52.122;9.952;2023-05-19T10:55:44;101470.50;;;16.67;47.88
13705;BME280;6924;52.122;9.952;2023-05-19T10:58:12;101473.31;;;16.41;47.22
13705;BME280;6924;52.122;9.952;2023-05-19T11:00:38;101474.84;;;16.56;48.76
13705;BME280;6924;52.122;9.952;2023-05-19T11:03:12;101477.00;;;16.42;48.42
13705;BME280;6924;52.122;9.952;2023-05-19T11:05:41;101484.03;;;16.44;49.71
13705;BME280;6924;52.122;9.952;2023-05-19T11:08:10;101477.34;;;16.49;48.92
13705;BME280;6924;52.122;9.952;2023-05-19T11:10:37;101467.44;;;16.55;48.89
13705;BME280;6924;52.122;9.952;2023-05-19T11:13:04;101463.94;;;16.67;46.18
13705;BME280;6924;52.122;9.952;2023-05-19T11:15:33;101467.19;;;16.91;47.87
13705;BME280;6924;52.122;9.952;2023-05-19T11:18:00;101462.47;;;17.04;46.86
13705;BME280;6924;52.122;9.952;2023-05-19T11:20:28;101455.38;;;17.10;44.82
13705;BME280;6924;52.122;9.952;2023-05-19T11:23:07;101451.34;;;17.29;44.51
13705;BME280;6924;52.122;9.952;2023-05-19T11:25:44;101449.28;;;17.47;44.73
13705;BME280;6924;52.122;9.952;2023-05-19T11:28:14;101452.94;;;17.56;44.41
13705;BME280;6924;52.122;9.952;2023-05-19T11:30:42;101442.81;;;17.67;43.33
13705;BME280;6924;52.122;9.952;2023-05-19T11:33:09;101433.38;;;17.75;43.37
13705;BME280;6924;52.122;9.952;2023-05-19T11:35:35;101437.88;;;17.76;42.41
13705;BME280;6924;52.122;9.952;2023-05-19T11:38:02;101436.22;;;17.75;40.17
13705;BME280;6924;52.122;9.952;2023-05-19T11:40:31;101441.94;;;17.84;39.89
13705;BME280;6924;52.122;9.952;2023-05-19T11:42:57;101445.63;;;17.85;41.13
13705;BME280;6924;52.122;9.952;2023-05-19T11:45:27;101436.72;;;17.86;41.64
13705;BME280;6924;52.122;9.952;2023-05-19T11:47:54;101437.13;;;18.06;42.69
13705;BME280;6924;52.122;9.952;2023-05-19T11:50:21;101434.03;;;18.20;40.74
13705;BME280;6924;52.122;9.952;2023-05-19T11:52:49;101432.44;;;18.31;40.96
13705;BME280;6924;52.122;9.952;2023-05-19T11:55:16;101418.53;;;18.42;42.42
13705;BME280;6924;52.122;9.952;2023-05-19T11:57:55;101424.00;;;18.55;42.32
13705;BME280;6924;52.122;9.952;2023-05-19T12:00:23;101424.09;;;18.68;40.94
13705;BME280;6924;52.122;9.952;2023-05-19T12:02:49;101428.06;;;18.75;40.29
13705;BME280;6924;52.122;9.952;2023-05-19T12:05:20;101428.88;;;18.76;41.28
13705;BME280;6924;52.122;9.952;2023-05-19T12:07:47;101424.56;;;18.70;42.41
13705;BME280;6924;52.122;9.952;2023-05-19T12:10:16;101421.56;;;18.66;41.93
13705;BME280;6924;52.122;9.952;2023-05-19T12:12:44;101420.22;;;18.64;41.28
13705;BME280;6924;52.122;9.952;2023-05-19T12:15:13;101416.19;;;18.44;41.57
13705;BME280;6924;52.122;9.952;2023-05-19T12:17:40;101425.22;;;18.25;40.93
13705;BME280;6924;52.122;9.952;2023-05-19T12:20:08;101421.84;;;18.23;41.39
13705;BME280;6924;52.122;9.952;2023-05-19T12:22:34;101405.00;;;18.00;41.14
13705;BME280;6924;52.122;9.952;2023-05-19T12:25:02;101412.66;;;17.70;41.17
13705;BME280;6924;52.122;9.952;2023-05-19T12:27:29;101405.00;;;17.53;42.12
13705;BME280;6924;52.122;9.952;2023-05-19T12:29:55;101421.59;;;17.77;42.81
13705;BME280;6924;52.122;9.952;2023-05-19T12:32:24;101415.34;;;17.84;41.57
13705;BME280;6924;52.122;9.952;2023-05-19T12:34:52;101417.53;;;17.78;41.45
13705;BME280;6924;52.122;9.952;2023-05-19T12:37:19;101413.31;;;17.84;41.18
13705;BME280;6924;52.122;9.952;2023-05-19T12:39:47;101409.13;;;17.73;40.40
13705;BME280;6924;52.122;9.952;2023-05-19T12:42:15;101409.13;;;17.73;41.81
13705;BME280;6924;52.122;9.952;2023-05-19T12:44:43;101412.13;;;17.76;40.92
13705;BME280;6924;52.122;9.952;2023-05-19T12:47:12;101413.47;;;17.79;42.24
13705;BME280;6924;52.122;9.952;2023-05-19T12:49:53;101408.47;;;17.67;41.49
13705;BME280;6924;52.122;9.952;2023-05-19T12:52:20;101400.41;;;17.69;40.85
13705;BME280;6924;52.122;9.952;2023-05-19T12:54:48;101388.06;;;17.86;42.23
13705;BME280;6924;52.122;9.952;2023-05-19T12:57:15;101412.09;;;17.94;40.95
13705;BME280;6924;52.122;9.952;2023-05-19T12:59:41;101406.81;;;18.05;40.87
13705;BME280;6924;52.122;9.952;2023-05-19T13:02:08;101403.91;;;17.84;39.96
13705;BME280;6924;52.122;9.952;2023-05-19T13:04:34;101396.50;;;17.83;40.83
13705;BME280;6924;52.122;9.952;2023-05-19T13:07:02;101399.84;;;17.85;40.83
13705;BME280;6924;52.122;9.952;2023-05-19T13:09:29;101402.72;;;17.76;40.72